sensor_id;sensor_type;location;lat;lon;timestamp;P1;durP1;ratioP1;P2;durP2;ratioP2
39930;SDS011;26635;-35.248;149.138;2024-01-06T00:00:21;1.83;;;0.30;;
39930;SDS011;26635;-35.248;149.138;2024-01-06T00:02:52;0.95;;;0.40;;
39930;SDS011;26635;-35.248;149.138;2024-01-06T00:05:23;1.50;;;0.40;;
39930;SDS011;26635;-35.248;149.138;2024-01-06T00:07:53;1.15;;;0.30;;
39930;SDS011;26635;-35.248;149.138;2024-01-06T00:10:25;1.40;;;0.30;;
39930;SDS011;26635;-35.248;149.138;2024-01-06T00:12:55;1.10;;;0.38;;
39930;SDS011;26635;-35.248;149.138;2024-01-06T00:15:26;2.60;;;0.43;;
39930;SDS011;26635;-35.248;149.138;2024-01-06T00:17:57;3.03;;;0.80;;
39930;SDS011;26635;-35.248;149.138;2024-01-06T00:20:27;1.58;;;0.75;;
39930;SDS011;26635;-35.248;149.138;2024-01-06T00:22:58;1.83;;;0.45;;
39930;SDS011;26635;-35.248;149.138;2024-01-06T00:25:28;3.13;;;0.55;;
39930;SDS011;26635;-35.248;149.138;2024-01-06T00:27:59;3.45;;;0.40;;
39930;SDS011;26635;-35.248;149.138;2024-01-06T00:30:29;3.35;;;0.77;;
39930;SDS011;26635;-35.248;149.138;2024-01-06T00:33:03;1.90;;;0.30;;
39930;SDS011;26635;-35.248;149.138;2024-01-06T00:35:34;2.03;;;0.40;;
39930;SDS011;26635;-35.248;149.138;2024-01-06T00:38:08;0.50;;;0.30;;
39930;SDS011;26635;-35.248;149.138;2024-01-06T00:40:39;1.40;;;0.30;;
39930;SDS011;26635;-35.248;149.138;2024-01-06T00:43:13;1.90;;;0.40;;
39930;SDS011;26635;-35.248;149.138;2024-01-06T00:45:46;1.98;;;0.60;;
39930;SDS011;26635;-35.248;149.138;2024-01-06T00:48:16;1.48;;;0.43;;
39930;SDS011;26635;-35.248;149.138;2024-01-06T00:50:48;2.05;;;0.50;;
39930;SDS011;26635;-35.248;149.138;2024-01-06T00:53:24;1.63;;;0.40;;
39930;SDS011;26635;-35.248;149.138;2024-01-06T00:55:55;1.45;;;0.30;;
39930;SDS011;26635;-35.248;149.138;2024-01-06T00:58:26;2.25;;;0.68;;
39930;SDS011;26635;-35.248;149.138;2024-01-06T01:00:56;2.58;;;0.30;;
39930;SDS011;26635;-35.248;149.138;2024-01-06T01:03:27;1.85;;;0.47;;
39930;SDS011;26635;-35.248;149.138;2024-01-06T01:05:58;2.50;;;0.30;;
39930;SDS011;26635;-35.248;149.138;2024-01-06T01:08:29;1.73;;;0.50;;
39930;SDS011;26635;-35.248;149.138;2024-01-06T01:11:02;3.05;;;0.50;;
39930;SDS011;26635;-35.248;149.138;2024-01-06T01:13:32;1.52;;;0.68;;
39930;SDS011;26635;-35.248;149.138;2024-01-06T01:16:03;1.67;;;0.30;;
39930;SDS011;26635;-35.248;149.138;2024-01-06T01:18:33;0.95;;;0.45;;
39930;SDS011;26635;-35.248;149.138;2024-01-06T01:21:04;1.05;;;0.40;;
39930;SDS011;26635;-35.248;149.138;2024-01-06T01:23:37;1.33;;;0.60;;
39930;SDS011;26635;-35.248;149.138;2024-01-06T01:26:07;1.13;;;0.30;;
39930;SDS011;26635;-35.248;149.138;2024-01-06T01:28:39;1.08;;;0.65;;
39930;SDS011;26635;-35.248;149.138;2024-01-06T01:31:10;1.98;;;0.50;;
39930;SDS011;26635;-35.248;149.138;2024-01-06T01:33:44;1.27;;;0.30;;
39930;SDS011;26635;-35.248;149.138;2024-01-06T01:36:16;1.23;;;0.50;;
39930;SDS011;26635;-35.248;149.138;2024-01-06T01:38:49;1.67;;;0.45;;
39930;SDS011;26635;-35.248;149.138;2024-01-06T01:41:22;1.38;;;0.32;;
39930;SDS011;26635;-35.248;149.138;2024-01-06T01:43:54;0.30;;;0.20;;
39930;SDS011;26635;-35.248;149.138;2024-01-06T01:46:27;1.67;;;0.30;;
39930;SDS011;26635;-35.248;149.138;2024-01-06T01:49:00;1.90;;;0.50;;
39930;SDS011;26635;-35.248;149.138;2024-01-06T01:51:34;2.70;;;0.63;;
39930;SDS011;26635;-35.248;149.138;2024-01-06T01:54:05;1.73;;;0.30;;
39930;SDS011;26635;-35.248;149.138;2024-01-06T01:56:37;1.38;;;0.40;;
39930;SDS011;26635;-35.248;149.138;2024-01-06T01:59:12;1.10;;;0.30;;
39930;SDS011;26635;-35.248;149.138;2024-01-06T02:01:51;2.20;;;0.50;;
39930;SDS011;26635;-35.248;149.138;2024-01-06T02:04:21;2.33;;;0.40;;
39930;SDS011;26635;-35.248;149.138;2024-01-06T02:06:51;1.45;;;0.43;;
39930;SDS011;26635;-35.248;149.138;2024-01-06T02:09:22;1.23;;;0.30;;
39930;SDS011;26635;-35.248;149.138;2024-01-06T02:11:59;0.75;;;0.47;;
39930;SDS011;26635;-35.248;149.138;2024-01-06T02:14:30;2.75;;;0.50;;
39930;SDS011;26635;-35.248;149.138;2024-01-06T02:17:01;2.65;;;0.55;;
39930;SDS011;26635;-35.248;149.138;2024-01-06T02:19:32;0.93;;;0.30;;
39930;SDS011;26635;-35.248;149.138;2024-01-06T02:22:04;1.83;;;0.60;;
39930;SDS011;26635;-35.248;149.138;2024-01-06T02:24:36;0.95;;;0.30;;
39930;SDS011;26635;-35.248;149.138;2024-01-06T02:27:06;1.58;;;0.40;;
39930;SDS011;26635;-35.248;149.138;2024-01-06T02:29:37;2.83;;;0.70;;
39930;SDS011;26635;-35.248;149.138;2024-01-06T02:32:07;3.40;;;0.75;;
39930;SDS011;26635;-35.248;149.138;2024-01-06T02:34:39;1.85;;;0.40;;
39930;SDS011;26635;-35.248;149.138;2024-01-06T02:37:13;2.35;;;0.32;;
39930;SDS011;26635;-35.248;149.138;2024-01-06T02:39:44;4.40;;;0.70;;
39930;SDS011;26635;-35.248;149.138;2024-01-06T02:42:16;2.38;;;0.50;;
39930;SDS011;26635;-35.248;149.138;2024-01-06T02:44:48;3.00;;;0.70;;
39930;SDS011;26635;-35.248;149.138;2024-01-06T02:47:21;2.03;;;0.70;;
39930;SDS011;26635;-35.248;149.138;2024-01-06T02:49:52;3.60;;;0.50;;
39930;SDS011;26635;-35.248;149.138;2024-01-06T02:52:22;0.73;;;0.38;;
39930;SDS011;26635;-35.248;149.138;2024-01-06T02:54:53;1.10;;;0.43;;
39930;SDS011;26635;-35.248;149.138;2024-01-06T02:57:23;1.20;;;0.40;;
39930;SDS011;26635;-35.248;149.138;2024-01-06T02:59:54;0.93;;;0.32;;
39930;SDS011;26635;-35.248;149.138;2024-01-06T03:02:25;2.25;;;0.30;;
39930;SDS011;26635;-35.248;149.138;2024-01-06T03:04:56;2.00;;;0.80;;
39930;SDS011;26635;-35.248;149.138;2024-01-06T03:07:26;1.70;;;0.35;;
39930;SDS011;26635;-35.248;149.138;2024-01-06T03:09:57;2.20;;;0.80;;
39930;SDS011;26635;-35.248;149.138;2024-01-06T03:12:28;3.67;;;0.80;;
39930;SDS011;26635;-35.248;149.138;2024-01-06T03:14:58;2.33;;;0.52;;
39930;SDS011;26635;-35.248;149.138;2024-01-06T03:17:29;1.65;;;0.60;;
39930;SDS011;26635;-35.248;149.138;2024-01-06T03:19:59;1.42;;;0.50;;
39930;SDS011;26635;-35.248;149.138;2024-01-06T03:22:30;1.73;;;0.40;;
39930;SDS011;26635;-35.248;149.138;2024-01-06T03:25:00;0.60;;;0.30;;
39930;SDS011;26635;-35.248;149.138;2024-01-06T03:27:31;0.88;;;0.38;;
39930;SDS011;26635;-35.248;149.138;2024-01-06T03:30:03;4.10;;;0.60;;
39930;SDS011;26635;-35.248;149.138;2024-01-06T03:32:35;2.42;;;0.35;;
39930;SDS011;26635;-35.248;149.138;2024-01-06T03:35:05;2.03;;;0.75;;
39930;SDS011;26635;-35.248;149.138;2024-01-06T03:37:40;0.82;;;0.35;;
39930;SDS011;26635;-35.248;149.138;2024-01-06T03:40:11;1.33;;;0.52;;
39930;SDS011;26635;-35.248;149.138;2024-01-06T03:42:41;2.70;;;0.77;;
39930;SDS011;26635;-35.248;149.138;2024-01-06T03:45:12;1.77;;;0.75;;
39930;SDS011;26635;-35.248;149.138;2024-01-06T03:47:45;2.00;;;0.40;;
39930;SDS011;26635;-35.248;149.138;2024-01-06T03:50:17;4.38;;;0.35;;
39930;SDS011;26635;-35.248;149.138;2024-01-06T03:52:47;1.52;;;0.40;;
39930;SDS011;26635;-35.248;149.138;2024-01-06T03:55:18;2.83;;;0.50;;
39930;SDS011;26635;-35.248;149.138;2024-01-06T03:57:48;3.67;;;0.40;;
39930;SDS011;26635;-35.248;149.138;2024-01-06T04:00:19;1.52;;;0.30;;
39930;SDS011;26635;-35.248;149.138;2024-01-06T04:02:50;2.08;;;0.40;;
39930;SDS011;26635;-35.248;149.138;2024-01-06T04:05:20;2.10;;;0.60;;
39930;SDS011;26635;-35.248;149.138;2024-01-06T04:07:50;1.92;;;0.50;;
39930;SDS011;26635;-35.248;149.138;2024-01-06T04:10:21;3.85;;;0.47;;
39930;SDS011;26635;-35.248;149.138;2024-01-06T04:12:51;1.67;;;0.45;;
39930;SDS011;26635;-35.248;149.138;2024-01-06T04:15:22;4.20;;;0.50;;
39930;SDS011;26635;-35.248;149.138;2024-01-06T04:17:52;2.83;;;0.50;;
39930;SDS011;26635;-35.248;149.138;2024-01-06T04:20:26;2.10;;;0.40;;
39930;SDS011;26635;-35.248;149.138;2024-01-06T04:22:56;1.77;;;0.50;;
39930;SDS011;26635;-35.248;149.138;2024-01-06T04:25:28;1.48;;;0.50;;
39930;SDS011;26635;-35.248;149.138;2024-01-06T04:27:59;1.10;;;0.50;;
39930;SDS011;26635;-35.248;149.138;2024-01-06T04:30:29;0.75;;;0.45;;
39930;SDS011;26635;-35.248;149.138;2024-01-06T04:33:00;1.65;;;0.40;;
39930;SDS011;26635;-35.248;149.138;2024-01-06T04:35:30;1.63;;;0.52;;
39930;SDS011;26635;-35.248;149.138;2024-01-06T04:38:00;2.83;;;0.50;;
39930;SDS011;26635;-35.248;149.138;2024-01-06T04:40:31;2.38;;;0.52;;
39930;SDS011;26635;-35.248;149.138;2024-01-06T04:43:02;1.80;;;0.40;;
39930;SDS011;26635;-35.248;149.138;2024-01-06T04:45:32;1.80;;;0.65;;
39930;SDS011;26635;-35.248;149.138;2024-01-06T04:48:03;0.60;;;0.30;;
39930;SDS011;26635;-35.248;149.138;2024-01-06T04:50:34;1.20;;;0.40;;
39930;SDS011;26635;-35.248;149.138;2024-01-06T04:53:05;1.08;;;0.70;;
39930;SDS011;26635;-35.248;149.138;2024-01-06T04:55:36;0.30;;;0.30;;
39930;SDS011;26635;-35.248;149.138;2024-01-06T04:58:06;3.50;;;1.15;;
39930;SDS011;26635;-35.248;149.138;2024-01-06T05:00:37;1.17;;;0.45;;
39930;SDS011;26635;-35.248;149.138;2024-01-06T05:03:07;1.38;;;0.50;;
39930;SDS011;26635;-35.248;149.138;2024-01-06T05:05:38;3.25;;;0.50;;
39930;SDS011;26635;-35.248;149.138;2024-01-06T05:08:08;1.75;;;0.50;;
39930;SDS011;26635;-35.248;149.138;2024-01-06T05:10:39;1.23;;;0.57;;
39930;SDS011;26635;-35.248;149.138;2024-01-06T05:13:28;1.00;;;0.50;;
39930;SDS011;26635;-35.248;149.138;2024-01-06T05:15:59;0.95;;;0.38;;
39930;SDS011;26635;-35.248;149.138;2024-01-06T05:18:30;2.20;;;0.52;;
39930;SDS011;26635;-35.248;149.138;2024-01-06T05:21:01;1.52;;;0.50;;
39930;SDS011;26635;-35.248;149.138;2024-01-06T05:23:32;4.45;;;0.70;;
39930;SDS011;26635;-35.248;149.138;2024-01-06T05:26:04;2.22;;;0.40;;
39930;SDS011;26635;-35.248;149.138;2024-01-06T05:28:34;2.75;;;0.70;;
39930;SDS011;26635;-35.248;149.138;2024-01-06T05:31:04;2.97;;;0.73;;
39930;SDS011;26635;-35.248;149.138;2024-01-06T05:33:35;2.95;;;0.60;;
39930;SDS011;26635;-35.248;149.138;2024-01-06T05:36:05;3.15;;;0.60;;
39930;SDS011;26635;-35.248;149.138;2024-01-06T05:38:36;1.65;;;0.70;;
39930;SDS011;26635;-35.248;149.138;2024-01-06T05:41:07;1.55;;;0.30;;
39930;SDS011;26635;-35.248;149.138;2024-01-06T05:43:37;4.18;;;0.57;;
39930;SDS011;26635;-35.248;149.138;2024-01-06T05:46:07;2.20;;;0.60;;
39930;SDS011;26635;-35.248;149.138;2024-01-06T05:48:39;2.78;;;0.93;;
39930;SDS011;26635;-35.248;149.138;2024-01-06T05:51:13;2.05;;;0.38;;
39930;SDS011;26635;-35.248;149.138;2024-01-06T05:53:44;2.30;;;0.47;;
39930;SDS011;26635;-35.248;149.138;2024-01-06T05:56:24;1.65;;;0.50;;
39930;SDS011;26635;-35.248;149.138;2024-01-06T05:58:55;1.67;;;0.82;;
39930;SDS011;26635;-35.248;149.138;2024-01-06T06:01:26;2.08;;;0.40;;
39930;SDS011;26635;-35.248;149.138;2024-01-06T06:03:56;4.28;;;0.80;;
39930;SDS011;26635;-35.248;149.138;2024-01-06T06:06:47;2.55;;;0.73;;
39930;SDS011;26635;-35.248;149.138;2024-01-06T06:09:38;1.77;;;0.40;;
39930;SDS011;26635;-35.248;149.138;2024-01-06T06:12:29;2.00;;;0.40;;
39930;SDS011;26635;-35.248;149.138;2024-01-06T06:15:21;3.30;;;0.70;;
39930;SDS011;26635;-35.248;149.138;2024-01-06T06:18:11;2.05;;;0.40;;
39930;SDS011;26635;-35.248;149.138;2024-01-06T06:21:03;1.65;;;0.40;;
39930;SDS011;26635;-35.248;149.138;2024-01-06T06:23:55;2.55;;;0.65;;
39930;SDS011;26635;-35.248;149.138;2024-01-06T06:26:46;2.50;;;0.63;;
39930;SDS011;26635;-35.248;149.138;2024-01-06T06:29:36;1.58;;;0.40;;
39930;SDS011;26635;-35.248;149.138;2024-01-06T06:32:27;1.70;;;0.43;;
39930;SDS011;26635;-35.248;149.138;2024-01-06T06:35:20;1.55;;;0.52;;
39930;SDS011;26635;-35.248;149.138;2024-01-06T06:38:12;2.25;;;0.45;;
39930;SDS011;26635;-35.248;149.138;2024-01-06T06:41:03;1.98;;;0.50;;
39930;SDS011;26635;-35.248;149.138;2024-01-06T06:43:53;1.40;;;0.47;;
39930;SDS011;26635;-35.248;149.138;2024-01-06T06:46:46;0.95;;;0.40;;
39930;SDS011;26635;-35.248;149.138;2024-01-06T06:49:37;3.63;;;0.80;;
39930;SDS011;26635;-35.248;149.138;2024-01-06T06:52:31;1.85;;;0.55;;
39930;SDS011;26635;-35.248;149.138;2024-01-06T06:55:22;1.00;;;0.43;;
39930;SDS011;26635;-35.248;149.138;2024-01-06T06:58:13;2.97;;;0.55;;
39930;SDS011;26635;-35.248;149.138;2024-01-06T07:01:03;2.40;;;0.50;;
39930;SDS011;26635;-35.248;149.138;2024-01-06T07:03:54;2.00;;;0.68;;
39930;SDS011;26635;-35.248;149.138;2024-01-06T07:06:46;1.58;;;0.52;;
39930;SDS011;26635;-35.248;149.138;2024-01-06T07:09:40;8.52;;;0.80;;
39930;SDS011;26635;-35.248;149.138;2024-01-06T07:12:30;0.70;;;0.40;;
39930;SDS011;26635;-35.248;149.138;2024-01-06T07:15:21;3.70;;;0.70;;
39930;SDS011;26635;-35.248;149.138;2024-01-06T07:18:12;2.10;;;0.73;;
39930;SDS011;26635;-35.248;149.138;2024-01-06T07:21:07;1.55;;;0.70;;
39930;SDS011;26635;-35.248;149.138;2024-01-06T07:24:00;1.60;;;0.50;;
39930;SDS011;26635;-35.248;149.138;2024-01-06T07:26:30;1.10;;;0.50;;
39930;SDS011;26635;-35.248;149.138;2024-01-06T07:29:00;3.47;;;0.50;;
39930;SDS011;26635;-35.248;149.138;2024-01-06T07:31:31;1.92;;;0.80;;
39930;SDS011;26635;-35.248;149.138;2024-01-06T07:34:01;1.38;;;0.73;;
39930;SDS011;26635;-35.248;149.138;2024-01-06T07:36:32;2.28;;;0.55;;
39930;SDS011;26635;-35.248;149.138;2024-01-06T07:39:03;1.27;;;0.52;;
39930;SDS011;26635;-35.248;149.138;2024-01-06T07:41:34;1.92;;;0.40;;
39930;SDS011;26635;-35.248;149.138;2024-01-06T07:44:07;1.10;;;0.50;;
39930;SDS011;26635;-35.248;149.138;2024-01-06T07:46:38;1.42;;;0.60;;
39930;SDS011;26635;-35.248;149.138;2024-01-06T07:49:09;2.50;;;0.50;;
39930;SDS011;26635;-35.248;149.138;2024-01-06T07:51:40;1.63;;;0.80;;
39930;SDS011;26635;-35.248;149.138;2024-01-06T07:54:10;3.78;;;0.80;;
39930;SDS011;26635;-35.248;149.138;2024-01-06T07:56:41;1.25;;;0.65;;
39930;SDS011;26635;-35.248;149.138;2024-01-06T07:59:12;1.55;;;0.45;;
39930;SDS011;26635;-35.248;149.138;2024-01-06T08:01:44;1.50;;;0.50;;
39930;SDS011;26635;-35.248;149.138;2024-01-06T08:04:16;2.33;;;0.60;;
39930;SDS011;26635;-35.248;149.138;2024-01-06T08:06:47;2.35;;;0.70;;
39930;SDS011;26635;-35.248;149.138;2024-01-06T08:09:21;3.85;;;0.50;;
39930;SDS011;26635;-35.248;149.138;2024-01-06T08:11:55;3.35;;;0.50;;
39930;SDS011;26635;-35.248;149.138;2024-01-06T08:14:26;1.38;;;0.63;;
39930;SDS011;26635;-35.248;149.138;2024-01-06T08:16:57;1.48;;;0.45;;
39930;SDS011;26635;-35.248;149.138;2024-01-06T08:19:28;2.63;;;0.80;;
39930;SDS011;26635;-35.248;149.138;2024-01-06T08:22:01;2.67;;;1.50;;
39930;SDS011;26635;-35.248;149.138;2024-01-06T08:24:32;4.50;;;1.33;;
39930;SDS011;26635;-35.248;149.138;2024-01-06T08:27:03;2.05;;;0.80;;
39930;SDS011;26635;-35.248;149.138;2024-01-06T08:29:34;4.25;;;1.08;;
39930;SDS011;26635;-35.248;149.138;2024-01-06T08:32:04;2.38;;;1.10;;
39930;SDS011;26635;-35.248;149.138;2024-01-06T08:34:35;1.52;;;0.77;;
39930;SDS011;26635;-35.248;149.138;2024-01-06T08:37:07;2.55;;;0.68;;
39930;SDS011;26635;-35.248;149.138;2024-01-06T08:39:37;1.95;;;0.73;;
39930;SDS011;26635;-35.248;149.138;2024-01-06T08:42:08;3.92;;;0.50;;
39930;SDS011;26635;-35.248;149.138;2024-01-06T08:44:38;3.55;;;1.00;;
39930;SDS011;26635;-35.248;149.138;2024-01-06T08:47:09;1.92;;;0.88;;
39930;SDS011;26635;-35.248;149.138;2024-01-06T08:49:40;4.28;;;0.85;;
39930;SDS011;26635;-35.248;149.138;2024-01-06T08:52:11;6.72;;;1.63;;
39930;SDS011;26635;-35.248;149.138;2024-01-06T08:54:41;6.95;;;0.95;;
39930;SDS011;26635;-35.248;149.138;2024-01-06T08:57:12;3.50;;;0.70;;
39930;SDS011;26635;-35.248;149.138;2024-01-06T08:59:43;3.90;;;1.17;;
39930;SDS011;26635;-35.248;149.138;2024-01-06T09:02:14;3.60;;;1.48;;
39930;SDS011;26635;-35.248;149.138;2024-01-06T09:04:45;3.80;;;1.10;;
39930;SDS011;26635;-35.248;149.138;2024-01-06T09:07:15;4.80;;;0.90;;
39930;SDS011;26635;-35.248;149.138;2024-01-06T09:09:49;4.03;;;1.23;;
39930;SDS011;26635;-35.248;149.138;2024-01-06T09:12:21;5.78;;;1.13;;
39930;SDS011;26635;-35.248;149.138;2024-01-06T09:14:52;2.83;;;1.00;;
39930;SDS011;26635;-35.248;149.138;2024-01-06T09:17:22;3.15;;;0.88;;
39930;SDS011;26635;-35.248;149.138;2024-01-06T09:19:53;2.58;;;1.05;;
39930;SDS011;26635;-35.248;149.138;2024-01-06T09:22:24;4.95;;;0.93;;
39930;SDS011;26635;-35.248;149.138;2024-01-06T09:24:54;8.13;;;1.15;;
39930;SDS011;26635;-35.248;149.138;2024-01-06T09:27:25;6.82;;;1.20;;
39930;SDS011;26635;-35.248;149.138;2024-01-06T09:29:55;4.43;;;1.15;;
39930;SDS011;26635;-35.248;149.138;2024-01-06T09:32:26;5.90;;;1.65;;
39930;SDS011;26635;-35.248;149.138;2024-01-06T09:34:56;3.30;;;0.75;;
39930;SDS011;26635;-35.248;149.138;2024-01-06T09:37:26;5.60;;;1.60;;
39930;SDS011;26635;-35.248;149.138;2024-01-06T09:39:57;2.97;;;0.90;;
39930;SDS011;26635;-35.248;149.138;2024-01-06T09:42:28;3.88;;;1.30;;
39930;SDS011;26635;-35.248;149.138;2024-01-06T09:44:59;3.65;;;1.63;;
39930;SDS011;26635;-35.248;149.138;2024-01-06T09:47:29;4.75;;;1.00;;
39930;SDS011;26635;-35.248;149.138;2024-01-06T09:50:05;3.78;;;1.92;;
39930;SDS011;26635;-35.248;149.138;2024-01-06T09:52:40;3.75;;;1.38;;
39930;SDS011;26635;-35.248;149.138;2024-01-06T09:55:12;3.47;;;1.13;;
39930;SDS011;26635;-35.248;149.138;2024-01-06T09:57:42;4.22;;;1.33;;
39930;SDS011;26635;-35.248;149.138;2024-01-06T10:00:16;2.30;;;1.08;;
39930;SDS011;26635;-35.248;149.138;2024-01-06T10:02:49;3.97;;;1.60;;
39930;SDS011;26635;-35.248;149.138;2024-01-06T10:05:20;2.97;;;1.23;;
39930;SDS011;26635;-35.248;149.138;2024-01-06T10:07:51;5.40;;;1.38;;
39930;SDS011;26635;-35.248;149.138;2024-01-06T10:10:23;2.60;;;1.50;;
39930;SDS011;26635;-35.248;149.138;2024-01-06T10:12:54;12.23;;;2.00;;
39930;SDS011;26635;-35.248;149.138;2024-01-06T10:15:25;5.22;;;1.60;;
39930;SDS011;26635;-35.248;149.138;2024-01-06T10:17:58;3.65;;;1.30;;
39930;SDS011;26635;-35.248;149.138;2024-01-06T10:20:31;2.80;;;1.40;;
39930;SDS011;26635;-35.248;149.138;2024-01-06T10:23:05;5.72;;;1.10;;
39930;SDS011;26635;-35.248;149.138;2024-01-06T10:25:36;8.93;;;2.25;;
39930;SDS011;26635;-35.248;149.138;2024-01-06T10:28:11;7.32;;;1.70;;
39930;SDS011;26635;-35.248;149.138;2024-01-06T10:30:45;7.18;;;1.45;;
39930;SDS011;26635;-35.248;149.138;2024-01-06T10:33:19;5.88;;;1.50;;
39930;SDS011;26635;-35.248;149.138;2024-01-06T10:35:54;8.20;;;1.30;;
39930;SDS011;26635;-35.248;149.138;2024-01-06T10:38:29;3.78;;;1.02;;
39930;SDS011;26635;-35.248;149.138;2024-01-06T10:41:00;8.50;;;1.20;;
39930;SDS011;26635;-35.248;149.138;2024-01-06T10:43:38;6.57;;;1.95;;
39930;SDS011;26635;-35.248;149.138;2024-01-06T10:46:15;5.60;;;1.58;;
39930;SDS011;26635;-35.248;149.138;2024-01-06T10:48:49;6.10;;;2.53;;
39930;SDS011;26635;-35.248;149.138;2024-01-06T10:51:21;5.45;;;2.05;;
39930;SDS011;26635;-35.248;149.138;2024-01-06T10:53:54;8.07;;;1.77;;
39930;SDS011;26635;-35.248;149.138;2024-01-06T10:56:27;5.07;;;1.27;;
39930;SDS011;26635;-35.248;149.138;2024-01-06T10:58:59;2.88;;;1.30;;
39930;SDS011;26635;-35.248;149.138;2024-01-06T11:01:32;3.65;;;1.40;;
39930;SDS011;26635;-35.248;149.138;2024-01-06T11:04:05;3.60;;;1.10;;
39930;SDS011;26635;-35.248;149.138;2024-01-06T11:06:36;5.53;;;1.60;;
39930;SDS011;26635;-35.248;149.138;2024-01-06T11:11:56;6.32;;;1.75;;
39930;SDS011;26635;-35.248;149.138;2024-01-06T11:14:28;6.43;;;1.13;;
39930;SDS011;26635;-35.248;149.138;2024-01-06T11:16:59;7.28;;;2.28;;
39930;SDS011;26635;-35.248;149.138;2024-01-06T11:25:05;3.42;;;1.45;;
39930;SDS011;26635;-35.248;149.138;2024-01-06T11:27:37;4.32;;;1.25;;
39930;SDS011;26635;-35.248;149.138;2024-01-06T11:32:52;5.30;;;1.17;;
39930;SDS011;26635;-35.248;149.138;2024-01-06T11:35:27;8.18;;;1.95;;
39930;SDS011;26635;-35.248;149.138;2024-01-06T11:38:03;7.93;;;1.75;;
39930;SDS011;26635;-35.248;149.138;2024-01-06T11:40:36;7.57;;;2.08;;
39930;SDS011;26635;-35.248;149.138;2024-01-06T11:43:11;3.40;;;1.15;;
39930;SDS011;26635;-35.248;149.138;2024-01-06T11:45:44;4.95;;;1.35;;
39930;SDS011;26635;-35.248;149.138;2024-01-06T11:48:15;7.05;;;1.95;;
39930;SDS011;26635;-35.248;149.138;2024-01-06T11:50:50;3.80;;;1.70;;
39930;SDS011;26635;-35.248;149.138;2024-01-06T11:53:21;5.80;;;1.27;;
39930;SDS011;26635;-35.248;149.138;2024-01-06T11:55:52;7.93;;;2.20;;
39930;SDS011;26635;-35.248;149.138;2024-01-06T11:58:25;5.78;;;2.63;;
39930;SDS011;26635;-35.248;149.138;2024-01-06T12:00:57;5.63;;;1.30;;
39930;SDS011;26635;-35.248;149.138;2024-01-06T12:03:28;6.82;;;1.85;;
39930;SDS011;26635;-35.248;149.138;2024-01-06T12:05:59;6.05;;;1.85;;
39930;SDS011;26635;-35.248;149.138;2024-01-06T12:08:32;5.80;;;2.00;;
39930;SDS011;26635;-35.248;149.138;2024-01-06T12:11:05;6.97;;;1.77;;
39930;SDS011;26635;-35.248;149.138;2024-01-06T12:13:36;5.55;;;2.33;;
39930;SDS011;26635;-35.248;149.138;2024-01-06T12:16:07;3.28;;;1.50;;
39930;SDS011;26635;-35.248;149.138;2024-01-06T12:18:38;3.63;;;1.45;;
39930;SDS011;26635;-35.248;149.138;2024-01-06T12:21:08;4.15;;;2.10;;
39930;SDS011;26635;-35.248;149.138;2024-01-06T12:23:41;3.63;;;1.70;;
39930;SDS011;26635;-35.248;149.138;2024-01-06T12:26:12;4.75;;;1.90;;
39930;SDS011;26635;-35.248;149.138;2024-01-06T12:28:46;4.55;;;1.80;;
39930;SDS011;26635;-35.248;149.138;2024-01-06T12:31:20;5.53;;;1.63;;
39930;SDS011;26635;-35.248;149.138;2024-01-06T12:33:52;3.97;;;1.50;;
39930;SDS011;26635;-35.248;149.138;2024-01-06T12:36:23;5.85;;;2.03;;
39930;SDS011;26635;-35.248;149.138;2024-01-06T12:38:54;5.50;;;1.55;;
39930;SDS011;26635;-35.248;149.138;2024-01-06T12:41:25;7.78;;;1.40;;
39930;SDS011;26635;-35.248;149.138;2024-01-06T12:43:56;3.47;;;1.58;;
39930;SDS011;26635;-35.248;149.138;2024-01-06T12:46:27;9.07;;;2.05;;
39930;SDS011;26635;-35.248;149.138;2024-01-06T12:48:58;4.97;;;2.22;;
39930;SDS011;26635;-35.248;149.138;2024-01-06T12:51:29;7.28;;;1.38;;
39930;SDS011;26635;-35.248;149.138;2024-01-06T12:54:00;7.40;;;1.88;;
39930;SDS011;26635;-35.248;149.138;2024-01-06T12:56:31;3.67;;;1.60;;
39930;SDS011;26635;-35.248;149.138;2024-01-06T12:59:02;7.07;;;1.88;;
39930;SDS011;26635;-35.248;149.138;2024-01-06T13:01:35;3.47;;;0.98;;
39930;SDS011;26635;-35.248;149.138;2024-01-06T13:04:05;5.97;;;1.65;;
39930;SDS011;26635;-35.248;149.138;2024-01-06T13:06:37;4.10;;;1.42;;
39930;SDS011;26635;-35.248;149.138;2024-01-06T13:09:09;4.75;;;1.95;;
39930;SDS011;26635;-35.248;149.138;2024-01-06T13:11:45;6.32;;;2.00;;
39930;SDS011;26635;-35.248;149.138;2024-01-06T13:14:16;4.63;;;1.55;;
39930;SDS011;26635;-35.248;149.138;2024-01-06T13:16:48;5.10;;;1.35;;
39930;SDS011;26635;-35.248;149.138;2024-01-06T13:19:21;6.95;;;1.42;;
39930;SDS011;26635;-35.248;149.138;2024-01-06T13:21:54;4.07;;;1.50;;
39930;SDS011;26635;-35.248;149.138;2024-01-06T13:24:26;3.78;;;1.20;;
39930;SDS011;26635;-35.248;149.138;2024-01-06T13:26:56;4.70;;;1.50;;
39930;SDS011;26635;-35.248;149.138;2024-01-06T13:29:27;4.22;;;1.13;;
39930;SDS011;26635;-35.248;149.138;2024-01-06T13:31:58;3.00;;;1.52;;
39930;SDS011;26635;-35.248;149.138;2024-01-06T13:34:29;7.07;;;1.33;;
39930;SDS011;26635;-35.248;149.138;2024-01-06T13:37:00;4.03;;;1.50;;
39930;SDS011;26635;-35.248;149.138;2024-01-06T13:39:30;6.35;;;1.65;;
39930;SDS011;26635;-35.248;149.138;2024-01-06T13:42:01;5.55;;;1.30;;
39930;SDS011;26635;-35.248;149.138;2024-01-06T13:44:33;3.97;;;1.10;;
39930;SDS011;26635;-35.248;149.138;2024-01-06T13:47:04;5.90;;;1.17;;
39930;SDS011;26635;-35.248;149.138;2024-01-06T13:49:36;6.90;;;1.20;;
39930;SDS011;26635;-35.248;149.138;2024-01-06T13:52:06;5.38;;;1.27;;
39930;SDS011;26635;-35.248;149.138;2024-01-06T13:54:37;3.22;;;1.10;;
39930;SDS011;26635;-35.248;149.138;2024-01-06T13:57:08;4.07;;;1.40;;
39930;SDS011;26635;-35.248;149.138;2024-01-06T13:59:39;2.90;;;0.95;;
39930;SDS011;26635;-35.248;149.138;2024-01-06T14:02:11;5.45;;;1.48;;
39930;SDS011;26635;-35.248;149.138;2024-01-06T14:04:41;3.28;;;1.15;;
39930;SDS011;26635;-35.248;149.138;2024-01-06T14:07:12;4.53;;;1.38;;
39930;SDS011;26635;-35.248;149.138;2024-01-06T14:09:42;3.38;;;1.02;;
39930;SDS011;26635;-35.248;149.138;2024-01-06T14:12:13;3.47;;;1.23;;
39930;SDS011;26635;-35.248;149.138;2024-01-06T14:14:45;5.20;;;1.20;;
39930;SDS011;26635;-35.248;149.138;2024-01-06T14:17:15;6.85;;;2.10;;
39930;SDS011;26635;-35.248;149.138;2024-01-06T14:19:46;6.20;;;1.45;;
39930;SDS011;26635;-35.248;149.138;2024-01-06T14:22:17;4.00;;;0.77;;
39930;SDS011;26635;-35.248;149.138;2024-01-06T14:24:49;5.45;;;1.92;;
39930;SDS011;26635;-35.248;149.138;2024-01-06T14:27:20;6.80;;;1.40;;
39930;SDS011;26635;-35.248;149.138;2024-01-06T14:29:52;5.78;;;1.40;;
39930;SDS011;26635;-35.248;149.138;2024-01-06T14:32:25;6.03;;;1.73;;
39930;SDS011;26635;-35.248;149.138;2024-01-06T14:34:57;5.85;;;1.15;;
39930;SDS011;26635;-35.248;149.138;2024-01-06T14:37:28;4.10;;;1.25;;
39930;SDS011;26635;-35.248;149.138;2024-01-06T14:39:58;6.15;;;1.10;;
39930;SDS011;26635;-35.248;149.138;2024-01-06T14:42:34;6.32;;;1.58;;
39930;SDS011;26635;-35.248;149.138;2024-01-06T14:45:05;5.60;;;1.33;;
39930;SDS011;26635;-35.248;149.138;2024-01-06T14:47:36;4.32;;;0.80;;
39930;SDS011;26635;-35.248;149.138;2024-01-06T14:50:07;3.65;;;1.38;;
39930;SDS011;26635;-35.248;149.138;2024-01-06T14:52:39;6.43;;;1.40;;